Time;durP1;ratioP1;P1;durP2;ratioP2;P2;SDS_P1;SDS_P2;PMS_P1;PMS_P2;Temp;Humidity;BMP_temperature;BMP_pressure;BME280_temperature;BME280_humidity;BME280_pressure;Samples;Min_cycle;Max_cycle;Signal;HPM_P1;HPM_P2
2022/08/09 00:01:08;;;;;;;3.47;2.97;;;;;;;;;;5079677;27;20234;-54
2022/08/09 00:03:34;;;;;;;6.68;3.30;;;;;;;;;;5082493;27;20242;-57
2022/08/09 00:06:00;;;;;;;3.20;2.88;;;;;;;;;;5082159;27;20250;-55
2022/08/09 00:08:27;;;;;;;3.25;2.95;;;;;;;;;;5072203;27;20234;-54
2022/08/09 00:10:53;;;;;;;5.35;3.28;;;;;;;;;;5077901;27;20676;-54
2022/08/09 00:13:21;;;;;;;6.07;3.20;;;;;;;;;;5079057;27;20219;-53
2022/08/09 00:15:47;;;;;;;6.07;3.28;;;;;;;;;;5083322;27;20234;-54
2022/08/09 00:18:14;;;;;;;4.47;2.70;;;;;;;;;;5071299;28;20231;-54
2022/08/09 00:20:40;;;;;;;4.60;3.28;;;;;;;;;;5083240;27;20234;-53
2022/08/09 00:23:07;;;;;;;3.25;2.95;;;;;;;;;;5082499;27;20325;-54
2022/08/09 00:25:33;;;;;;;4.80;3.58;;;;;;;;;;5087636;27;20253;-55
2022/08/09 00:27:59;;;;;;;3.95;3.50;;;;;;;;;;5084363;27;20779;-55
2022/08/09 00:30:27;;;;;;;3.50;2.75;;;;;;;;;;5093734;27;20235;-54
2022/08/09 00:32:53;;;;;;;5.35;3.63;;;;;;;;;;5084422;27;20233;-55
2022/08/09 00:35:20;;;;;;;3.85;2.95;;;;;;;;;;5079122;27;20700;-55
2022/08/09 00:37:46;;;;;;;3.08;2.88;;;;;;;;;;5082291;27;20223;-54
2022/08/09 00:40:12;;;;;;;3.50;3.13;;;;;;;;;;5080944;27;20237;-55
2022/08/09 00:42:39;;;;;;;3.33;3.03;;;;;;;;;;5082547;27;20230;-54
2022/08/09 00:45:06;;;;;;;3.70;3.10;;;;;;;;;;5084761;27;20235;-54
2022/08/09 00:47:34;;;;;;;2.83;2.45;;;;;;;;;;5082727;27;20230;-55
2022/08/09 00:50:02;;;;;;;2.95;2.70;;;;;;;;;;5079201;27;20239;-54
2022/08/09 00:52:29;;;;;;;3.08;2.88;;;;;;;;;;5084952;27;20235;-54
2022/08/09 00:54:56;;;;;;;3.70;3.05;;;;;;;;;;5084635;27;20242;-55
2022/08/09 00:57:22;;;;;;;3.25;2.95;;;;;;;;;;5076786;28;20238;-54
2022/08/09 00:59:48;;;;;;;3.28;2.88;;;;;;;;;;5081764;27;20242;-55
2022/08/09 01:02:18;;;;;;;4.15;3.20;;;;;;;;;;5088367;27;20237;-54
2022/08/09 01:04:49;;;;;;;2.58;2.25;;;;;;;;;;5070811;27;20235;-55
2022/08/09 01:07:20;;;;;;;3.40;3.10;;;;;;;;;;5083998;27;20781;-54
2022/08/09 01:09:48;;;;;;;3.47;3.13;;;;;;;;;;5083788;27;20237;-55
2022/08/09 01:12:20;;;;;;;4.57;3.05;;;;;;;;;;5086114;27;20230;-56
2022/08/09 01:14:49;;;;;;;3.55;2.92;;;;;;;;;;5082557;27;20313;-54
2022/08/09 01:17:19;;;;;;;4.72;3.20;;;;;;;;;;5086156;27;20234;-54
2022/08/09 01:19:51;;;;;;;3.15;2.95;;;;;;;;;;5081065;27;20254;-54
2022/08/09 01:22:36;;;;;;;3.30;3.00;;;;;;;;;;5077904;27;20241;-54
2022/08/09 01:25:12;;;;;;;3.33;3.03;;;;;;;;;;5068037;28;20293;-54
2022/08/09 01:27:41;;;;;;;3.88;3.53;;;;;;;;;;5079014;27;20237;-54
2022/08/09 01:30:08;;;;;;;3.65;2.83;;;;;;;;;;5085497;27;20238;-54
2022/08/09 01:32:37;;;;;;;3.40;3.10;;;;;;;;;;5081827;27;20235;-52
2022/08/09 01:35:06;;;;;;;3.22;2.92;;;;;;;;;;5070554;27;20314;-54
2022/08/09 01:37:33;;;;;;;3.88;3.00;;;;;;;;;;5084006;27;20237;-54
2022/08/09 01:40:00;;;;;;;3.75;3.13;;;;;;;;;;5080713;28;20239;-54
2022/08/09 01:42:28;;;;;;;4.38;3.05;;;;;;;;;;5080251;27;20227;-54
2022/08/09 01:44:56;;;;;;;2.83;2.38;;;;;;;;;;5077604;27;20310;-55
2022/08/09 01:47:23;;;;;;;3.28;2.97;;;;;;;;;;5074783;27;20246;-53
2022/08/09 01:49:50;;;;;;;3.47;3.10;;;;;;;;;;5083321;27;20237;-53
2022/08/09 01:52:17;;;;;;;4.25;3.05;;;;;;;;;;5082604;27;20238;-54
2022/08/09 01:54:45;;;;;;;3.30;3.00;;;;;;;;;;5083845;27;20246;-54
2022/08/09 01:57:13;;;;;;;4.07;3.08;;;;;;;;;;5084016;27;20231;-54
2022/08/09 01:59:41;;;;;;;3.47;2.83;;;;;;;;;;5078895;27;20235;-54
2022/08/09 02:02:10;;;;;;;3.00;2.80;;;;;;;;;;5079463;27;20315;-54
2022/08/09 02:04:38;;;;;;;3.67;3.08;;;;;;;;;;5080929;27;20258;-54
2022/08/09 02:07:10;;;;;;;3.70;3.40;;;;;;;;;;5077193;27;20237;-54
2022/08/09 02:09:38;;;;;;;4.38;2.95;;;;;;;;;;5077927;27;20226;-54
2022/08/09 02:12:06;;;;;;;2.85;2.65;;;;;;;;;;5080321;27;20249;-54
2022/08/09 02:14:34;;;;;;;3.78;3.47;;;;;;;;;;5084436;27;20230;-54
2022/08/09 02:17:00;;;;;;;2.70;2.42;;;;;;;;;;5081669;27;20227;-54
2022/08/09 02:19:28;;;;;;;3.50;3.20;;;;;;;;;;5073232;27;20246;-55
2022/08/09 02:21:57;;;;;;;3.05;2.72;;;;;;;;;;5082464;27;20227;-54
2022/08/09 02:24:25;;;;;;;4.15;3.75;;;;;;;;;;5081363;27;20237;-55
2022/08/09 02:26:54;;;;;;;4.15;3.65;;;;;;;;;;5078010;27;20226;-54
2022/08/09 02:29:23;;;;;;;3.20;2.90;;;;;;;;;;5083619;27;20230;-55
2022/08/09 02:31:50;;;;;;;4.32;3.35;;;;;;;;;;5079133;27;20246;-54
2022/08/09 02:34:18;;;;;;;4.85;3.15;;;;;;;;;;5079369;27;20238;-55
2022/08/09 02:36:48;;;;;;;6.13;3.65;;;;;;;;;;5081470;27;20231;-54
2022/08/09 02:39:17;;;;;;;4.88;3.45;;;;;;;;;;5076150;27;20246;-55
2022/08/09 02:41:45;;;;;;;6.57;2.92;;;;;;;;;;5078953;27;20235;-55
2022/08/09 02:44:15;;;;;;;3.70;3.22;;;;;;;;;;5080454;27;20230;-54
2022/08/09 02:46:43;;;;;;;3.75;3.45;;;;;;;;;;5073160;27;20219;-53
2022/08/09 02:49:11;;;;;;;4.95;3.00;;;;;;;;;;5069334;27;20243;-54
2022/08/09 02:51:38;;;;;;;3.95;3.35;;;;;;;;;;5077511;27;20239;-54
2022/08/09 02:54:06;;;;;;;4.15;3.10;;;;;;;;;;5070885;27;20242;-54
2022/08/09 02:56:33;;;;;;;3.85;3.47;;;;;;;;;;5086344;27;20246;-55
2022/08/09 02:59:01;;;;;;;3.58;3.10;;;;;;;;;;5081900;27;20237;-54
2022/08/09 03:01:28;;;;;;;3.75;2.90;;;;;;;;;;5081665;27;20237;-55
2022/08/09 03:03:55;;;;;;;6.00;3.03;;;;;;;;;;5085604;27;20237;-54
2022/08/09 03:06:22;;;;;;;4.88;3.08;;;;;;;;;;5082063;27;20264;-54
2022/08/09 03:08:50;;;;;;;3.30;2.90;;;;;;;;;;5082940;27;20242;-55
2022/08/09 03:11:19;;;;;;;3.40;3.10;;;;;;;;;;5079137;27;20235;-54
2022/08/09 03:13:47;;;;;;;3.60;2.90;;;;;;;;;;5083479;27;20769;-56
2022/08/09 03:16:14;;;;;;;4.25;3.45;;;;;;;;;;5075965;27;20242;-55
2022/08/09 03:18:40;;;;;;;7.70;3.45;;;;;;;;;;5070834;27;22532;-54
2022/08/09 03:21:08;;;;;;;3.83;3.40;;;;;;;;;;5084624;27;20234;-53
2022/08/09 03:23:34;;;;;;;3.80;3.28;;;;;;;;;;5082748;27;20236;-54
2022/08/09 03:26:01;;;;;;;7.43;3.13;;;;;;;;;;5084966;27;20245;-55
2022/08/09 03:28:29;;;;;;;8.73;3.92;;;;;;;;;;5073880;27;20246;-54
2022/08/09 03:30:55;;;;;;;5.18;3.40;;;;;;;;;;5074043;27;20275;-55
2022/08/09 03:33:23;;;;;;;3.58;3.13;;;;;;;;;;5078925;27;20235;-54
2022/08/09 03:35:49;;;;;;;3.92;3.53;;;;;;;;;;5075194;27;20234;-54
2022/08/09 03:38:16;;;;;;;4.55;3.30;;;;;;;;;;5079007;27;20237;-62
2022/08/09 03:40:42;;;;;;;3.95;3.55;;;;;;;;;;5085274;27;20508;-54
2022/08/09 03:43:09;;;;;;;4.15;3.60;;;;;;;;;;5075563;27;20231;-54
2022/08/09 03:45:36;;;;;;;6.55;3.05;;;;;;;;;;5071864;27;20721;-55
2022/08/09 03:48:03;;;;;;;4.57;4.18;;;;;;;;;;5071641;27;20234;-56
2022/08/09 03:50:30;;;;;;;7.22;3.17;;;;;;;;;;5070083;27;20243;-55
2022/08/09 03:52:57;;;;;;;4.72;3.65;;;;;;;;;;5070781;27;20238;-53
2022/08/09 03:55:24;;;;;;;3.95;3.65;;;;;;;;;;5081817;27;20230;-54
2022/08/09 03:57:50;;;;;;;3.75;2.95;;;;;;;;;;5086489;27;20238;-54
2022/08/09 04:00:17;;;;;;;3.78;3.47;;;;;;;;;;5074855;27;20226;-55
2022/08/09 04:02:46;;;;;;;7.65;3.92;;;;;;;;;;5084935;27;20233;-54
2022/08/09 04:05:12;;;;;;;4.72;2.97;;;;;;;;;;5081972;27;20230;-53
2022/08/09 04:07:39;;;;;;;4.45;3.88;;;;;;;;;;5074107;27;20705;-55
2022/08/09 04:10:05;;;;;;;5.40;4.22;;;;;;;;;;5079348;27;20763;-54
2022/08/09 04:12:37;;;;;;;6.13;3.67;;;;;;;;;;5072542;27;20240;-53
2022/08/09 04:15:04;;;;;;;4.32;3.92;;;;;;;;;;5075280;27;20230;-54
2022/08/09 04:17:30;;;;;;;3.72;3.42;;;;;;;;;;5079241;27;20233;-54
2022/08/09 04:19:58;;;;;;;4.05;3.20;;;;;;;;;;5076491;27;20239;-54
2022/08/09 04:22:25;;;;;;;4.28;3.35;;;;;;;;;;5079340;27;20262;-54
2022/08/09 04:24:51;;;;;;;3.95;3.38;;;;;;;;;;5076340;27;20709;-54
2022/08/09 04:27:17;;;;;;;4.93;3.60;;;;;;;;;;5069387;27;20242;-54
2022/08/09 04:29:44;;;;;;;4.50;3.78;;;;;;;;;;5081199;27;20238;-53
2022/08/09 04:32:10;;;;;;;6.93;4.15;;;;;;;;;;5080979;27;20235;-53
2022/08/09 04:34:36;;;;;;;3.95;3.55;;;;;;;;;;5069848;27;21419;-55
2022/08/09 04:37:04;;;;;;;4.13;3.83;;;;;;;;;;5071477;27;20245;-53
2022/08/09 04:39:30;;;;;;;4.88;3.55;;;;;;;;;;5082216;27;20591;-53
2022/08/09 04:41:57;;;;;;;4.32;3.85;;;;;;;;;;5074774;27;20724;-55
2022/08/09 04:44:23;;;;;;;6.03;3.95;;;;;;;;;;5082120;27;20235;-54
2022/08/09 04:46:49;;;;;;;5.70;4.15;;;;;;;;;;5080056;27;20258;-55
2022/08/09 04:49:16;;;;;;;3.58;3.05;;;;;;;;;;5076248;27;20246;-53
2022/08/09 04:51:42;;;;;;;7.88;4.70;;;;;;;;;;5082026;27;20242;-54
2022/08/09 04:54:10;;;;;;;4.20;3.45;;;;;;;;;;5077427;27;20230;-54
2022/08/09 04:56:36;;;;;;;5.95;3.97;;;;;;;;;;5081964;27;20755;-54
2022/08/09 04:59:02;;;;;;;5.60;4.20;;;;;;;;;;5079330;27;20243;-54
2022/08/09 05:01:29;;;;;;;5.03;3.88;;;;;;;;;;5077940;27;20231;-54
2022/08/09 05:03:55;;;;;;;5.32;4.18;;;;;;;;;;5084140;27;20235;-56
2022/08/09 05:06:21;;;;;;;4.35;3.95;;;;;;;;;;5083861;27;20223;-55
2022/08/09 05:08:48;;;;;;;4.82;4.07;;;;;;;;;;5083782;27;20238;-56
2022/08/09 05:11:15;;;;;;;4.97;3.55;;;;;;;;;;5078408;28;20237;-54
2022/08/09 05:13:42;;;;;;;4.60;3.42;;;;;;;;;;5082164;27;20580;-54
2022/08/09 05:16:08;;;;;;;3.85;3.55;;;;;;;;;;5083465;27;20230;-53
2022/08/09 05:18:35;;;;;;;5.05;4.55;;;;;;;;;;5084791;27;20260;-54
2022/08/09 05:21:01;;;;;;;3.83;3.53;;;;;;;;;;5087786;27;20269;-54
2022/08/09 05:23:29;;;;;;;4.78;4.28;;;;;;;;;;5086369;27;20594;-54
2022/08/09 05:25:55;;;;;;;4.25;3.85;;;;;;;;;;5081028;27;20588;-54
2022/08/09 05:28:23;;;;;;;4.57;3.70;;;;;;;;;;5086499;27;20235;-54
2022/08/09 05:30:49;;;;;;;4.70;4.13;;;;;;;;;;5081767;27;20239;-53
2022/08/09 05:33:15;;;;;;;8.38;4.32;;;;;;;;;;5085042;27;20277;-54
2022/08/09 05:35:42;;;;;;;5.82;4.28;;;;;;;;;;5081045;27;20598;-54
2022/08/09 05:38:08;;;;;;;4.75;4.18;;;;;;;;;;5083038;27;20326;-54
2022/08/09 05:40:34;;;;;;;3.97;3.58;;;;;;;;;;5082799;27;20241;-54
2022/08/09 05:43:01;;;;;;;4.55;4.13;;;;;;;;;;5085158;27;20222;-53
2022/08/09 05:45:29;;;;;;;6.95;4.53;;;;;;;;;;5082983;27;20654;-53
2022/08/09 05:47:55;;;;;;;4.78;4.25;;;;;;;;;;5080448;27;20223;-54
2022/08/09 05:50:24;;;;;;;5.00;4.32;;;;;;;;;;5083324;27;20233;-58
2022/08/09 05:52:51;;;;;;;5.10;3.97;;;;;;;;;;5077182;27;20231;-54
2022/08/09 05:55:17;;;;;;;6.38;4.00;;;;;;;;;;5082410;27;20227;-53
2022/08/09 05:57:44;;;;;;;4.50;4.10;;;;;;;;;;5079670;27;20696;-54
2022/08/09 06:00:11;;;;;;;5.28;4.03;;;;;;;;;;5079499;27;20223;-54
2022/08/09 06:02:39;;;;;;;4.30;3.80;;;;;;;;;;5072816;27;20262;-54
2022/08/09 06:05:07;;;;;;;6.65;3.75;;;;;;;;;;5081181;27;20238;-53
2022/08/09 06:07:34;;;;;;;4.70;4.20;;;;;;;;;;5084304;27;20719;-54
2022/08/09 06:10:00;;;;;;;5.28;3.55;;;;;;;;;;5084879;27;20261;-54
2022/08/09 06:12:26;;;;;;;4.75;4.25;;;;;;;;;;5083750;28;20238;-54
2022/08/09 06:14:53;;;;;;;5.13;4.18;;;;;;;;;;5078911;27;20358;-54
2022/08/09 06:17:19;;;;;;;4.78;4.13;;;;;;;;;;5081711;27;20602;-54
2022/08/09 06:19:47;;;;;;;4.65;4.00;;;;;;;;;;5083906;27;20305;-54
2022/08/09 06:22:14;;;;;;;8.95;3.92;;;;;;;;;;5084775;27;20318;-53
2022/08/09 06:24:40;;;;;;;6.82;5.00;;;;;;;;;;5080992;27;20230;-54
2022/08/09 06:27:06;;;;;;;10.20;4.07;;;;;;;;;;5075783;27;20411;-53
2022/08/09 06:29:33;;;;;;;6.13;4.05;;;;;;;;;;5077435;27;20379;-54
2022/08/09 06:31:59;;;;;;;4.40;4.07;;;;;;;;;;5074605;27;20245;-56
2022/08/09 06:34:25;;;;;;;5.20;4.15;;;;;;;;;;5082885;27;20293;-54
2022/08/09 06:36:54;;;;;;;6.03;4.15;;;;;;;;;;5086626;27;20242;-56
2022/08/09 06:39:21;;;;;;;8.23;4.15;;;;;;;;;;5083692;27;20239;-54
2022/08/09 06:41:48;;;;;;;3.88;3.58;;;;;;;;;;5077834;27;20643;-54
2022/08/09 06:44:14;;;;;;;3.83;3.50;;;;;;;;;;5080914;27;20334;-55
2022/08/09 06:46:40;;;;;;;6.93;3.95;;;;;;;;;;5082993;27;20257;-54
2022/08/09 06:49:07;;;;;;;6.50;4.03;;;;;;;;;;5082818;27;20453;-54
2022/08/09 06:51:34;;;;;;;3.90;3.47;;;;;;;;;;5076479;28;20717;-54
2022/08/09 06:54:02;;;;;;;4.68;3.17;;;;;;;;;;5082886;27;20238;-54
2022/08/09 06:56:28;;;;;;;3.75;3.45;;;;;;;;;;5083452;28;20222;-55
2022/08/09 06:58:54;;;;;;;4.88;3.10;;;;;;;;;;5082094;27;20233;-53
2022/08/09 07:01:21;;;;;;;4.28;3.80;;;;;;;;;;5082784;27;20237;-55
2022/08/09 07:03:47;;;;;;;4.32;3.97;;;;;;;;;;5086307;27;20632;-54
2022/08/09 07:06:13;;;;;;;5.93;3.25;;;;;;;;;;5085217;27;20387;-53
2022/08/09 07:08:40;;;;;;;3.55;3.25;;;;;;;;;;5098127;27;20696;-53
2022/08/09 07:11:08;;;;;;;4.68;4.13;;;;;;;;;;5082567;27;20238;-54
2022/08/09 07:13:34;;;;;;;3.78;3.38;;;;;;;;;;5079946;27;20314;-55
2022/08/09 07:16:01;;;;;;;4.13;3.33;;;;;;;;;;5081910;27;20235;-54
2022/08/09 07:18:27;;;;;;;5.78;4.40;;;;;;;;;;5083941;28;20222;-54
2022/08/09 07:20:54;;;;;;;4.63;3.28;;;;;;;;;;5083662;27;20230;-55
2022/08/09 07:23:20;;;;;;;3.78;3.08;;;;;;;;;;5080938;27;20314;-55
2022/08/09 07:25:47;;;;;;;3.03;2.70;;;;;;;;;;5080038;27;20238;-55
2022/08/09 07:28:15;;;;;;;3.90;3.33;;;;;;;;;;5079031;27;20222;-54
2022/08/09 07:30:41;;;;;;;6.07;3.58;;;;;;;;;;5076815;27;20245;-54
2022/08/09 07:33:07;;;;;;;3.55;3.05;;;;;;;;;;5073709;27;20246;-56
2022/08/09 07:35:34;;;;;;;3.22;2.92;;;;;;;;;;5083404;27;20225;-54
2022/08/09 07:38:00;;;;;;;4.55;3.13;;;;;;;;;;5074975;27;20234;-55
2022/08/09 07:40:27;;;;;;;7.20;3.70;;;;;;;;;;5079506;27;20235;-54
2022/08/09 07:42:54;;;;;;;4.93;3.47;;;;;;;;;;5083757;27;20735;-54
2022/08/09 07:45:25;;;;;;;3.22;2.92;;;;;;;;;;5083535;27;20629;-54
2022/08/09 07:47:52;;;;;;;3.50;3.20;;;;;;;;;;5081793;27;20304;-55
2022/08/09 07:50:18;;;;;;;3.65;3.05;;;;;;;;;;5086930;27;20317;-54
2022/08/09 07:52:44;;;;;;;2.97;2.78;;;;;;;;;;5079753;27;20774;-57
2022/08/09 07:55:11;;;;;;;2.63;2.42;;;;;;;;;;5070389;28;20231;-53
2022/08/09 07:57:37;;;;;;;3.47;3.05;;;;;;;;;;5074235;27;20227;-53
2022/08/09 08:00:05;;;;;;;4.00;2.80;;;;;;;;;;5079829;27;20229;-53
2022/08/09 08:02:32;;;;;;;3.63;2.63;;;;;;;;;;5075883;27;20226;-55
2022/08/09 08:04:59;;;;;;;3.60;3.13;;;;;;;;;;5084706;27;20230;-55
2022/08/09 08:07:25;;;;;;;7.47;3.58;;;;;;;;;;5076767;27;20237;-54
2022/08/09 08:09:52;;;;;;;3.03;2.72;;;;;;;;;;5076210;27;20343;-55
2022/08/09 08:12:18;;;;;;;3.65;3.15;;;;;;;;;;5068195;27;20226;-54
2022/08/09 08:14:45;;;;;;;2.95;2.65;;;;;;;;;;5079402;27;20230;-53
2022/08/09 08:17:11;;;;;;;5.65;2.95;;;;;;;;;;5077582;27;20231;-54
2022/08/09 08:19:39;;;;;;;4.13;2.85;;;;;;;;;;5074605;27;20692;-55
2022/08/09 08:22:05;;;;;;;2.83;2.53;;;;;;;;;;5075864;27;20242;-54
2022/08/09 08:24:32;;;;;;;2.80;2.42;;;;;;;;;;5072967;27;20238;-54
2022/08/09 08:26:58;;;;;;;5.43;2.70;;;;;;;;;;5078182;27;20246;-54
2022/08/09 08:29:25;;;;;;;5.47;2.45;;;;;;;;;;5077764;27;20239;-53
2022/08/09 08:31:51;;;;;;;3.53;2.83;;;;;;;;;;5078649;27;20238;-53
2022/08/09 08:34:18;;;;;;;6.32;2.78;;;;;;;;;;5077829;27;20239;-54
2022/08/09 08:36:45;;;;;;;6.57;3.13;;;;;;;;;;5072650;27;20724;-54
2022/08/09 08:39:12;;;;;;;2.20;1.95;;;;;;;;;;5081945;27;20230;-54
2022/08/09 08:41:39;;;;;;;3.03;2.22;;;;;;;;;;5073992;27;20314;-53
2022/08/09 08:44:06;;;;;;;2.88;2.67;;;;;;;;;;5078963;27;20261;-53
2022/08/09 08:46:34;;;;;;;2.63;1.98;;;;;;;;;;5081370;27;20234;-54
2022/08/09 08:49:01;;;;;;;3.13;2.22;;;;;;;;;;5081538;27;20739;-54
2022/08/09 08:51:27;;;;;;;3.67;2.15;;;;;;;;;;5074530;27;20241;-55
2022/08/09 08:53:55;;;;;;;3.17;2.70;;;;;;;;;;5078295;27;20276;-55
2022/08/09 08:56:22;;;;;;;7.30;2.80;;;;;;;;;;5076129;27;20261;-54
2022/08/09 08:58:48;;;;;;;5.88;2.90;;;;;;;;;;5087595;27;20234;-54
2022/08/09 09:01:16;;;;;;;3.33;2.78;;;;;;;;;;5088392;27;20230;-55
2022/08/09 09:03:43;;;;;;;2.75;2.50;;;;;;;;;;5084833;27;20708;-54
2022/08/09 09:06:10;;;;;;;2.75;2.50;;;;;;;;;;5086810;27;20236;-55
2022/08/09 09:08:37;;;;;;;3.10;2.60;;;;;;;;;;5100050;27;20252;-55
2022/08/09 09:11:05;;;;;;;2.88;2.20;;;;;;;;;;5079962;27;20321;-53
2022/08/09 09:13:34;;;;;;;2.67;2.47;;;;;;;;;;5088172;28;20236;-53
2022/08/09 09:16:01;;;;;;;4.47;2.38;;;;;;;;;;5082213;27;20238;-54
2022/08/09 09:18:27;;;;;;;2.38;2.13;;;;;;;;;;5088037;27;20241;-55
2022/08/09 09:20:54;;;;;;;4.93;2.15;;;;;;;;;;5087908;27;20238;-55
2022/08/09 09:23:30;;;;;;;3.05;2.58;;;;;;;;;;5079001;27;20241;-54
2022/08/09 09:25:56;;;;;;;3.03;2.30;;;;;;;;;;5075720;27;20488;-54
2022/08/09 09:28:31;;;;;;;3.45;2.53;;;;;;;;;;5080846;27;20238;-53
2022/08/09 09:31:00;;;;;;;2.70;2.03;;;;;;;;;;5074550;27;20238;-54
2022/08/09 09:33:30;;;;;;;3.58;2.25;;;;;;;;;;5087018;27;20798;-54
2022/08/09 09:35:58;;;;;;;5.47;2.88;;;;;;;;;;5076617;27;20355;-53
2022/08/09 09:38:38;;;;;;;2.65;2.30;;;;;;;;;;5089013;27;20234;-54
2022/08/09 09:41:05;;;;;;;3.53;2.30;;;;;;;;;;5077570;27;20238;-54
2022/08/09 09:43:32;;;;;;;3.90;2.47;;;;;;;;;;5071192;27;20586;-54
2022/08/09 09:46:01;;;;;;;2.83;2.50;;;;;;;;;;5077876;27;20225;-54
2022/08/09 09:48:28;;;;;;;2.35;2.15;;;;;;;;;;5093102;27;20230;-54
2022/08/09 09:50:54;;;;;;;5.30;2.30;;;;;;;;;;5079897;27;20280;-55
2022/08/09 09:53:21;;;;;;;4.75;2.90;;;;;;;;;;5086670;27;20715;-55
2022/08/09 09:55:52;;;;;;;3.03;2.20;;;;;;;;;;5073913;27;20235;-54
2022/08/09 09:58:19;;;;;;;3.20;2.30;;;;;;;;;;5081941;27;20227;-54
2022/08/09 10:00:47;;;;;;;2.55;2.13;;;;;;;;;;5077134;27;20235;-54
2022/08/09 10:03:14;;;;;;;3.13;2.30;;;;;;;;;;5086503;27;20237;-54
2022/08/09 10:05:55;;;;;;;3.67;2.95;;;;;;;;;;5082754;27;20230;-55
2022/08/09 10:08:22;;;;;;;4.03;2.08;;;;;;;;;;5083663;27;20236;-55
2022/08/09 10:10:49;;;;;;;3.28;2.03;;;;;;;;;;5081166;27;20234;-63
2022/08/09 10:13:15;;;;;;;3.08;2.33;;;;;;;;;;5083265;27;20234;-55
2022/08/09 10:15:48;;;;;;;3.10;2.33;;;;;;;;;;5084515;27;20235;-53
2022/08/09 10:18:14;;;;;;;2.53;2.03;;;;;;;;;;5083122;27;20785;-55
2022/08/09 10:20:41;;;;;;;2.53;2.10;;;;;;;;;;5079402;27;20238;-54
2022/08/09 10:23:15;;;;;;;3.60;2.40;;;;;;;;;;5079725;27;20751;-55
2022/08/09 10:25:41;;;;;;;2.38;2.17;;;;;;;;;;5085257;27;20233;-56
2022/08/09 10:28:08;;;;;;;2.55;2.30;;;;;;;;;;5079376;27;20246;-55
2022/08/09 10:30:34;;;;;;;3.22;2.50;;;;;;;;;;5079978;27;20231;-54
2022/08/09 10:33:03;;;;;;;2.10;1.98;;;;;;;;;;5080872;27;20223;-54
2022/08/09 10:35:29;;;;;;;2.40;2.20;;;;;;;;;;5071835;28;20237;-53
2022/08/09 10:37:56;;;;;;;1.92;1.80;;;;;;;;;;5088072;27;20475;-55
2022/08/09 10:40:23;;;;;;;2.97;2.42;;;;;;;;;;5081658;27;20318;-54
2022/08/09 10:42:49;;;;;;;2.90;2.15;;;;;;;;;;5078420;27;20223;-54
2022/08/09 10:45:16;;;;;;;4.25;2.50;;;;;;;;;;5092079;27;20232;-55
2022/08/09 10:47:56;;;;;;;4.07;2.50;;;;;;;;;;5083628;28;20707;-54
2022/08/09 10:50:27;;;;;;;3.00;2.55;;;;;;;;;;5080544;27;20242;-55
2022/08/09 10:53:03;;;;;;;3.45;2.63;;;;;;;;;;5078054;27;20700;-53
2022/08/09 10:55:31;;;;;;;2.92;2.22;;;;;;;;;;5085316;27;20276;-53
2022/08/09 10:57:57;;;;;;;3.88;2.60;;;;;;;;;;5090841;27;20239;-54
2022/08/09 11:00:31;;;;;;;2.53;2.13;;;;;;;;;;5080940;27;20616;-54
2022/08/09 11:02:58;;;;;;;2.38;2.17;;;;;;;;;;5072572;27;20712;-54
2022/08/09 11:05:26;;;;;;;2.60;2.10;;;;;;;;;;5080806;27;20238;-54
2022/08/09 11:07:52;;;;;;;4.38;2.60;;;;;;;;;;5078488;27;20230;-54
2022/08/09 11:10:51;;;;;;;3.60;2.30;;;;;;;;;;5085757;27;20238;-53
2022/08/09 11:13:19;;;;;;;2.80;2.28;;;;;;;;;;5083506;27;20230;-54
2022/08/09 11:15:45;;;;;;;2.72;2.30;;;;;;;;;;5087421;27;20233;-54
2022/08/09 11:18:31;;;;;;;2.40;2.20;;;;;;;;;;5083354;27;20227;-55
2022/08/09 11:20:59;;;;;;;2.50;2.30;;;;;;;;;;5073053;27;20235;-54
2022/08/09 11:23:28;;;;;;;2.45;2.25;;;;;;;;;;5079340;27;20238;-53
2022/08/09 11:25:54;;;;;;;2.20;2.10;;;;;;;;;;5081922;27;20235;-53
2022/08/09 11:28:34;;;;;;;3.42;2.33;;;;;;;;;;5080052;27;20318;-53
2022/08/09 11:31:01;;;;;;;2.08;1.98;;;;;;;;;;5083978;27;20226;-53
2022/08/09 11:33:42;;;;;;;2.83;2.63;;;;;;;;;;5081996;28;20237;-54
2022/08/09 11:36:09;;;;;;;2.42;2.10;;;;;;;;;;5075786;27;20248;-53
2022/08/09 11:38:36;;;;;;;2.60;2.40;;;;;;;;;;5077700;27;20251;-54
2022/08/09 11:41:04;;;;;;;3.50;2.05;;;;;;;;;;5085244;27;20234;-53
2022/08/09 11:43:41;;;;;;;5.47;2.88;;;;;;;;;;5085261;27;20613;-54
2022/08/09 11:46:07;;;;;;;3.65;2.42;;;;;;;;;;5077726;27;20245;-56
2022/08/09 11:48:45;;;;;;;2.25;2.15;;;;;;;;;;5082193;27;20238;-54
2022/08/09 11:51:13;;;;;;;4.32;2.15;;;;;;;;;;5083109;27;20245;-54
2022/08/09 11:53:40;;;;;;;2.72;2.53;;;;;;;;;;5082690;27;20226;-54
2022/08/09 11:56:31;;;;;;;3.70;2.72;;;;;;;;;;5080069;27;20235;-53
2022/08/09 11:58:58;;;;;;;3.30;2.33;;;;;;;;;;5072468;27;20317;-54
2022/08/09 12:01:34;;;;;;;3.85;2.25;;;;;;;;;;5079473;27;20322;-54
2022/08/09 12:04:02;;;;;;;5.32;3.05;;;;;;;;;;5071929;27;20231;-54
2022/08/09 12:06:31;;;;;;;4.25;2.55;;;;;;;;;;5078650;27;20230;-55
2022/08/09 12:08:58;;;;;;;2.35;2.15;;;;;;;;;;5078684;27;20262;-55
2022/08/09 12:11:25;;;;;;;2.83;2.33;;;;;;;;;;5082290;27;20226;-54
2022/08/09 12:13:52;;;;;;;3.80;2.42;;;;;;;;;;5081522;27;20781;-54
2022/08/09 12:16:19;;;;;;;3.53;2.15;;;;;;;;;;5091509;27;20234;-53
2022/08/09 12:18:47;;;;;;;2.92;2.42;;;;;;;;;;5087757;27;20238;-53
2022/08/09 12:21:13;;;;;;;3.50;2.65;;;;;;;;;;5086802;28;20231;-55
2022/08/09 12:23:45;;;;;;;2.70;2.50;;;;;;;;;;5079124;27;20438;-54
2022/08/09 12:26:11;;;;;;;2.65;2.42;;;;;;;;;;5082213;27;20235;-54
2022/08/09 12:28:40;;;;;;;3.55;2.67;;;;;;;;;;5080808;27;20231;-55
2022/08/09 12:31:17;;;;;;;2.65;2.47;;;;;;;;;;5087788;27;20238;-54
2022/08/09 12:33:43;;;;;;;2.55;2.35;;;;;;;;;;5088024;27;20321;-54
2022/08/09 12:36:10;;;;;;;2.75;2.42;;;;;;;;;;5084045;27;20331;-54
2022/08/09 12:38:36;;;;;;;2.72;2.53;;;;;;;;;;5093818;27;20229;-54
2022/08/09 12:41:04;;;;;;;3.10;2.15;;;;;;;;;;5086150;27;20242;-53
2022/08/09 12:43:30;;;;;;;3.20;2.60;;;;;;;;;;5089263;27;20222;-54
2022/08/09 12:45:58;;;;;;;2.72;2.38;;;;;;;;;;5088265;27;20239;-57
2022/08/09 12:48:24;;;;;;;3.20;2.03;;;;;;;;;;5088659;27;20233;-57
2022/08/09 12:50:51;;;;;;;3.90;2.28;;;;;;;;;;5095895;27;20238;-55
2022/08/09 12:53:24;;;;;;;2.22;2.13;;;;;;;;;;5093512;27;20230;-54
2022/08/09 12:55:50;;;;;;;2.88;2.53;;;;;;;;;;5088643;27;20287;-63
2022/08/09 12:58:18;;;;;;;2.53;2.05;;;;;;;;;;5086418;27;20231;-53
2022/08/09 13:00:46;;;;;;;1.80;1.70;;;;;;;;;;5089403;27;20231;-54
2022/08/09 13:03:12;;;;;;;2.00;1.80;;;;;;;;;;5093497;27;20299;-55
2022/08/09 13:05:42;;;;;;;2.15;2.00;;;;;;;;;;5093322;27;20309;-53
2022/08/09 13:08:13;;;;;;;2.30;2.10;;;;;;;;;;5084025;27;20234;-54
2022/08/09 13:10:46;;;;;;;1.70;1.60;;;;;;;;;;5091229;27;20254;-54
2022/08/09 13:13:13;;;;;;;2.05;1.92;;;;;;;;;;5086755;27;20230;-53
2022/08/09 13:15:54;;;;;;;2.40;2.30;;;;;;;;;;5095381;27;20229;-55
2022/08/09 13:18:21;;;;;;;3.10;2.17;;;;;;;;;;5093771;27;20265;-58
2022/08/09 13:20:47;;;;;;;2.28;2.08;;;;;;;;;;5087213;27;20655;-54
2022/08/09 13:23:14;;;;;;;4.53;2.30;;;;;;;;;;5088896;27;20489;-54
2022/08/09 13:25:41;;;;;;;2.75;2.15;;;;;;;;;;5084019;27;20227;-54
2022/08/09 13:28:11;;;;;;;2.15;1.95;;;;;;;;;;5084732;27;20231;-54
2022/08/09 13:30:38;;;;;;;2.00;1.90;;;;;;;;;;5078731;27;20231;-56
2022/08/09 13:33:05;;;;;;;3.83;2.00;;;;;;;;;;5082054;28;20745;-55
2022/08/09 13:35:32;;;;;;;3.47;1.90;;;;;;;;;;5083082;27;20223;-55
2022/08/09 13:37:59;;;;;;;2.40;1.88;;;;;;;;;;5088413;27;20235;-54
2022/08/09 13:40:25;;;;;;;2.88;2.17;;;;;;;;;;5087868;27;20242;-55
2022/08/09 13:42:52;;;;;;;2.00;1.80;;;;;;;;;;5082653;27;20231;-55
2022/08/09 13:45:19;;;;;;;3.08;2.10;;;;;;;;;;5082560;27;20235;-54
2022/08/09 13:47:45;;;;;;;2.40;2.20;;;;;;;;;;5088186;27;20231;-56
2022/08/09 13:50:14;;;;;;;2.40;2.20;;;;;;;;;;5090494;27;20246;-61
2022/08/09 13:52:40;;;;;;;2.25;1.90;;;;;;;;;;5087426;27;20230;-55
2022/08/09 13:55:07;;;;;;;2.38;2.08;;;;;;;;;;5086003;27;20219;-53
2022/08/09 13:57:34;;;;;;;3.85;1.92;;;;;;;;;;5083733;27;20238;-54
2022/08/09 14:00:01;;;;;;;1.95;1.73;;;;;;;;;;5077429;27;20699;-54
2022/08/09 14:02:28;;;;;;;3.70;1.55;;;;;;;;;;5093598;27;20233;-54
2022/08/09 14:04:54;;;;;;;1.60;1.50;;;;;;;;;;5090957;27;20226;-55
2022/08/09 14:07:22;;;;;;;3.22;1.85;;;;;;;;;;5090338;27;20226;-54
2022/08/09 14:09:50;;;;;;;2.22;2.03;;;;;;;;;;5080714;28;20648;-54
2022/08/09 14:12:16;;;;;;;5.45;2.50;;;;;;;;;;5084944;27;20735;-54
2022/08/09 14:14:43;;;;;;;2.00;1.80;;;;;;;;;;5084839;27;20787;-54
2022/08/09 14:17:10;;;;;;;1.60;1.50;;;;;;;;;;5083446;27;20243;-54
2022/08/09 14:19:37;;;;;;;1.73;1.60;;;;;;;;;;5086561;27;20223;-54
2022/08/09 14:22:03;;;;;;;2.22;1.88;;;;;;;;;;5092393;27;20243;-54
2022/08/09 14:24:31;;;;;;;3.85;1.85;;;;;;;;;;5089064;27;20231;-54
2022/08/09 14:26:59;;;;;;;3.53;1.73;;;;;;;;;;5075641;27;20235;-54
2022/08/09 14:29:25;;;;;;;3.90;1.85;;;;;;;;;;5074710;27;20728;-54
2022/08/09 14:31:51;;;;;;;3.40;2.05;;;;;;;;;;5081280;27;20230;-56
2022/08/09 14:34:18;;;;;;;2.35;1.70;;;;;;;;;;5078509;27;20395;-55
2022/08/09 14:36:44;;;;;;;2.25;2.05;;;;;;;;;;5091147;27;20238;-55
2022/08/09 14:39:11;;;;;;;1.77;1.67;;;;;;;;;;5089215;27;20245;-53
2022/08/09 14:41:38;;;;;;;2.45;1.77;;;;;;;;;;5089335;27;20290;-53
2022/08/09 14:44:05;;;;;;;1.80;1.70;;;;;;;;;;5093131;27;20231;-54
2022/08/09 14:46:31;;;;;;;4.20;1.63;;;;;;;;;;5085819;27;20245;-57